createdAt,value
2019-02-09T00:01:37.871Z,8.80
2019-02-09T00:04:06.532Z,8.90
2019-02-09T00:06:34.888Z,8.90
2019-02-09T00:09:05.914Z,8.90
2019-02-09T00:11:33.919Z,8.90
2019-02-09T00:14:03.726Z,9.00
2019-02-09T00:16:32.785Z,9.00
2019-02-09T00:19:01.081Z,9.00
2019-02-09T00:21:29.150Z,9.10
2019-02-09T00:23:57.364Z,9.20
2019-02-09T00:26:25.589Z,9.20
2019-02-09T00:28:53.757Z,9.20
2019-02-09T00:31:22.362Z,9.20
2019-02-09T00:33:50.440Z,9.20
2019-02-09T00:36:18.651Z,9.30
2019-02-09T00:38:46.889Z,9.30
2019-02-09T00:41:14.983Z,9.40
2019-02-09T00:43:43.317Z,9.50
2019-02-09T00:46:11.726Z,9.60
2019-02-09T00:48:39.810Z,9.60
2019-02-09T00:51:10.409Z,9.70
2019-02-09T00:53:39.291Z,9.70
2019-02-09T00:56:08.007Z,9.70
2019-02-09T00:58:36.079Z,9.70
2019-02-09T01:01:04.742Z,9.70
2019-02-09T01:03:32.927Z,9.80
2019-02-09T01:06:01.194Z,9.70
2019-02-09T01:08:29.502Z,9.80
2019-02-09T01:10:57.665Z,9.70
2019-02-09T01:13:26.323Z,9.70
2019-02-09T01:15:54.743Z,9.80
2019-02-09T01:18:22.794Z,9.80
2019-02-09T01:20:50.997Z,9.90
2019-02-09T01:23:19.227Z,9.90
2019-02-09T01:25:47.401Z,10.00
2019-02-09T01:28:15.999Z,10.00
2019-02-09T01:30:44.353Z,10.00
2019-02-09T01:33:13.077Z,9.90
2019-02-09T01:35:41.179Z,9.90
2019-02-09T01:38:09.302Z,9.80
2019-02-09T01:40:37.392Z,9.70
2019-02-09T01:43:05.546Z,9.80
2019-02-09T01:45:33.768Z,9.90
2019-02-09T01:48:02.092Z,9.90
2019-02-09T01:50:31.153Z,9.90
2019-02-09T01:52:59.526Z,9.90
2019-02-09T01:55:28.902Z,9.90
2019-02-09T01:57:57.172Z,9.90
2019-02-09T02:00:27.696Z,9.90
2019-02-09T02:02:55.865Z,10.00
2019-02-09T02:05:24.599Z,10.00
2019-02-09T02:07:53.282Z,10.10
2019-02-09T02:10:35.061Z,10.00
2019-02-09T02:13:04.033Z,10.00
2019-02-09T02:15:32.674Z,10.00
2019-02-09T02:18:00.805Z,10.00
2019-02-09T02:20:29.666Z,10.00
2019-02-09T02:22:58.370Z,10.20
2019-02-09T02:25:26.537Z,10.40
2019-02-09T02:27:54.874Z,10.50
2019-02-09T02:30:27.935Z,10.60
2019-02-09T02:32:56.548Z,10.60
2019-02-09T02:35:24.713Z,10.60
2019-02-09T02:37:53.305Z,10.70
2019-02-09T02:40:22.199Z,10.70
2019-02-09T02:42:50.226Z,10.70
2019-02-09T02:45:18.691Z,10.70
2019-02-09T02:47:47.156Z,10.70
2019-02-09T02:50:17.357Z,10.70
2019-02-09T02:52:46.030Z,10.70
2019-02-09T02:55:16.255Z,10.70
2019-02-09T02:57:44.459Z,10.60
2019-02-09T03:00:15.766Z,10.50
2019-02-09T03:02:43.966Z,10.40
2019-02-09T03:05:14.246Z,10.30
2019-02-09T03:07:42.500Z,10.20
2019-02-09T03:10:11.157Z,10.20
2019-02-09T03:12:39.284Z,10.20
2019-02-09T03:15:10.998Z,10.20
2019-02-09T03:17:39.131Z,10.30
2019-02-09T03:20:10.837Z,10.30
2019-02-09T03:22:39.077Z,10.30
2019-02-09T03:25:09.161Z,10.40
2019-02-09T03:27:37.189Z,10.40
2019-02-09T03:30:07.611Z,10.30
2019-02-09T03:32:36.092Z,10.30
2019-02-09T03:35:06.584Z,10.30
2019-02-09T03:37:35.319Z,10.30
2019-02-09T03:40:05.306Z,10.30
2019-02-09T03:42:33.875Z,10.30
2019-02-09T03:45:02.584Z,10.30
2019-02-09T03:47:30.965Z,10.20
2019-02-09T03:49:59.483Z,10.10
2019-02-09T03:52:28.228Z,10.10
2019-02-09T03:54:56.621Z,10.00
2019-02-09T03:57:25.219Z,10.00
2019-02-09T03:59:53.969Z,9.90
2019-02-09T04:02:22.698Z,9.90
2019-02-09T04:04:50.770Z,9.90
2019-02-09T04:07:19.406Z,9.90
2019-02-09T04:09:47.502Z,9.90
2019-02-09T04:12:15.842Z,9.80
2019-02-09T04:14:44.530Z,9.80
2019-02-09T04:17:12.933Z,9.80
2019-02-09T04:19:41.292Z,9.70
2019-02-09T04:22:10.025Z,9.70
2019-02-09T04:24:38.351Z,9.80
2019-02-09T04:27:07.041Z,9.70
2019-02-09T04:29:35.155Z,9.60
2019-02-09T04:32:03.795Z,9.60
2019-02-09T04:34:31.961Z,9.60
2019-02-09T04:37:00.454Z,9.50
2019-02-09T04:39:29.093Z,9.60
2019-02-09T04:41:57.762Z,9.60
2019-02-09T04:44:26.005Z,9.60
2019-02-09T04:46:54.151Z,9.50
2019-02-09T04:49:22.390Z,9.50
2019-02-09T04:51:50.554Z,9.50
2019-02-09T04:54:18.684Z,9.50
2019-02-09T04:56:46.972Z,9.60
2019-02-09T04:59:15.209Z,9.60
2019-02-09T05:01:43.432Z,9.70
2019-02-09T05:04:12.097Z,9.70
2019-02-09T05:06:40.234Z,9.70
2019-02-09T05:09:08.284Z,9.70
2019-02-09T05:11:36.885Z,9.60
2019-02-09T05:14:05.241Z,9.70
2019-02-09T05:16:33.506Z,9.60
2019-02-09T05:19:01.514Z,9.60
2019-02-09T05:21:30.147Z,9.70
2019-02-09T05:23:58.401Z,9.70
2019-02-09T05:26:26.904Z,9.70
2019-02-09T05:28:55.101Z,9.70
2019-02-09T05:31:23.714Z,9.70
2019-02-09T05:33:51.764Z,9.70
2019-02-09T05:36:21.097Z,9.70
2019-02-09T05:38:49.810Z,9.70
2019-02-09T05:41:18.191Z,9.80
2019-02-09T05:43:46.119Z,9.80
2019-02-09T05:46:14.362Z,9.80
2019-02-09T05:48:42.482Z,9.80
2019-02-09T05:51:10.606Z,9.80
2019-02-09T05:53:38.594Z,9.80
2019-02-09T05:56:07.257Z,9.70
2019-02-09T05:58:35.509Z,9.70
2019-02-09T06:01:04.036Z,9.90
2019-02-09T06:03:32.110Z,9.90
2019-02-09T06:06:00.802Z,9.80
2019-02-09T06:08:28.863Z,9.80
2019-02-09T06:10:57.518Z,9.80
2019-02-09T06:13:25.915Z,9.80
2019-02-09T06:15:54.002Z,9.80
2019-02-09T06:18:22.739Z,9.80
2019-02-09T06:20:51.038Z,9.80
2019-02-09T06:23:19.137Z,9.80
2019-02-09T06:25:47.816Z,9.70
2019-02-09T06:28:15.887Z,9.70
2019-02-09T06:30:44.575Z,9.60
2019-02-09T06:33:12.654Z,9.70
2019-02-09T06:35:41.003Z,9.70
2019-02-09T06:38:09.707Z,9.80
2019-02-09T06:40:37.890Z,9.80
2019-02-09T06:43:06.482Z,9.80
2019-02-09T06:45:34.544Z,9.80
2019-02-09T06:48:23.399Z,9.80
2019-02-09T06:50:51.850Z,9.70
2019-02-09T06:53:20.146Z,9.60
2019-02-09T06:55:48.367Z,9.50
2019-02-09T06:58:16.417Z,9.30
2019-02-09T07:00:44.595Z,9.30
2019-02-09T07:03:12.837Z,9.20
2019-02-09T07:05:40.931Z,9.20
2019-02-09T07:08:09.586Z,9.20
2019-02-09T07:10:37.686Z,9.20
2019-02-09T07:13:06.081Z,9.20
2019-02-09T07:15:34.699Z,9.30
2019-02-09T07:18:03.357Z,9.20
2019-02-09T07:20:31.693Z,9.10
2019-02-09T07:23:00.355Z,9.10
2019-02-09T07:25:29.828Z,9.10
2019-02-09T07:27:57.954Z,9.10
2019-02-09T07:30:28.695Z,9.10
2019-02-09T07:32:57.710Z,9.10
2019-02-09T07:35:25.985Z,9.20
2019-02-09T07:37:54.430Z,9.20
2019-02-09T07:40:22.770Z,9.20
2019-02-09T07:42:52.434Z,9.20
2019-02-09T07:45:23.258Z,9.30
2019-02-09T07:47:51.637Z,9.30
2019-02-09T07:50:20.878Z,9.30
2019-02-09T07:52:49.028Z,9.40
2019-02-09T07:55:18.102Z,9.50
2019-02-09T07:57:46.683Z,9.50
2019-02-09T08:00:22.457Z,9.60
2019-02-09T08:02:50.852Z,9.70
2019-02-09T08:05:19.410Z,9.80
2019-02-09T08:07:47.672Z,9.80
2019-02-09T08:10:21.491Z,9.90
2019-02-09T08:12:49.941Z,10.00
2019-02-09T08:15:22.903Z,10.00
2019-02-09T08:17:51.043Z,10.10
2019-02-09T08:20:20.486Z,10.10
2019-02-09T08:22:49.262Z,10.10
2019-02-09T08:25:20.738Z,10.10
2019-02-09T08:27:49.409Z,10.10
2019-02-09T08:30:45.982Z,10.10
2019-02-09T08:33:14.285Z,10.20
2019-02-09T08:35:42.884Z,10.30
2019-02-09T08:38:12.367Z,10.40
2019-02-09T08:40:40.752Z,10.50
2019-02-09T08:43:09.108Z,10.70
2019-02-09T08:45:37.510Z,10.90
2019-02-09T08:48:06.567Z,11.00
2019-02-09T08:50:37.093Z,11.10
2019-02-09T08:53:05.341Z,11.20
2019-02-09T08:55:34.119Z,11.30
2019-02-09T08:58:02.559Z,11.20
2019-02-09T09:00:31.903Z,11.10
2019-02-09T09:03:00.412Z,11.20
2019-02-09T09:05:28.613Z,11.30
2019-02-09T09:07:56.831Z,11.40
2019-02-09T09:10:26.077Z,11.70
2019-02-09T09:12:54.588Z,13.80
2019-02-09T09:15:28.222Z,16.40
2019-02-09T09:17:56.540Z,18.70
2019-02-09T09:20:26.975Z,21.00
2019-02-09T09:22:55.141Z,22.60
2019-02-09T09:25:23.583Z,23.40
2019-02-09T09:27:51.803Z,23.90
2019-02-09T09:30:21.759Z,24.20
2019-02-09T09:32:49.938Z,24.70
2019-02-09T09:35:18.833Z,25.20
2019-02-09T09:37:49.713Z,25.80
2019-02-09T09:40:23.278Z,26.20
2019-02-09T09:43:01.553Z,26.20
2019-02-09T09:45:31.218Z,26.50
2019-02-09T09:47:59.720Z,25.70
2019-02-09T09:50:28.269Z,24.10
2019-02-09T09:52:56.679Z,22.90
2019-02-09T09:55:25.338Z,21.90
2019-02-09T09:57:53.822Z,20.60
2019-02-09T10:00:22.167Z,20.40
2019-02-09T10:02:51.325Z,21.30
2019-02-09T10:05:19.539Z,21.50
2019-02-09T10:07:47.826Z,21.50
2019-02-09T10:10:17.610Z,20.80
2019-02-09T10:12:45.805Z,20.30
2019-02-09T10:15:15.814Z,20.00
2019-02-09T10:17:43.922Z,19.90
2019-02-09T10:20:14.280Z,20.10
2019-02-09T10:22:42.409Z,19.50
2019-02-09T10:25:10.870Z,19.20
2019-02-09T10:27:39.271Z,20.00
2019-02-09T10:30:10.265Z,20.10
2019-02-09T10:32:44.327Z,19.80
2019-02-09T10:35:09.348Z,19.90
2019-02-09T10:37:37.675Z,19.30
2019-02-09T10:40:07.451Z,19.30
2019-02-09T10:42:35.890Z,19.00
2019-02-09T10:45:12.910Z,18.90
2019-02-09T10:47:41.082Z,18.30
2019-02-09T10:50:12.466Z,18.50
2019-02-09T10:52:40.326Z,18.40
2019-02-09T10:55:09.397Z,19.40
2019-02-09T10:57:37.471Z,20.30
2019-02-09T11:00:11.018Z,21.50
2019-02-09T11:02:39.327Z,21.80
2019-02-09T11:05:08.403Z,21.80
2019-02-09T11:07:36.893Z,21.10
2019-02-09T11:10:06.457Z,21.20
2019-02-09T11:12:34.557Z,21.10
2019-02-09T11:15:03.757Z,20.70
2019-02-09T11:17:31.881Z,21.00
2019-02-09T11:20:00.050Z,20.60
2019-02-09T11:22:28.490Z,20.40
2019-02-09T11:24:56.785Z,20.20
2019-02-09T11:27:24.858Z,20.30
2019-02-09T11:29:53.444Z,20.20
2019-02-09T11:32:21.953Z,19.80
2019-02-09T11:34:50.042Z,19.70
2019-02-09T11:37:17.947Z,19.30
2019-02-09T11:39:46.380Z,19.20
2019-02-09T11:42:14.662Z,19.30
2019-02-09T11:44:42.642Z,19.30
2019-02-09T11:47:10.872Z,19.50
2019-02-09T11:49:39.181Z,19.60
2019-02-09T11:52:07.927Z,18.70
2019-02-09T11:54:35.792Z,17.60
2019-02-09T11:57:03.573Z,17.20
2019-02-09T11:59:31.379Z,17.10
2019-02-09T12:01:59.219Z,17.40
2019-02-09T12:04:27.424Z,17.40
2019-02-09T12:06:55.579Z,17.50
2019-02-09T12:09:23.823Z,17.60
2019-02-09T12:11:52.203Z,17.50
2019-02-09T12:14:20.564Z,17.30
2019-02-09T12:16:48.713Z,16.80
2019-02-09T12:19:17.629Z,16.70
2019-02-09T12:21:45.750Z,17.30
2019-02-09T12:24:14.402Z,17.30
2019-02-09T12:26:42.786Z,17.50
2019-02-09T12:29:11.759Z,18.20
2019-02-09T12:31:40.143Z,18.30
2019-02-09T12:34:08.454Z,18.50
2019-02-09T12:36:36.609Z,18.40
2019-02-09T12:39:09.247Z,17.90
2019-02-09T12:41:37.454Z,17.50
2019-02-09T12:44:05.748Z,16.80
2019-02-09T12:46:34.102Z,16.40
2019-02-09T12:49:02.234Z,16.40
2019-02-09T12:51:30.832Z,16.20
2019-02-09T12:53:59.029Z,16.20
2019-02-09T12:56:27.122Z,16.50
2019-02-09T12:58:55.165Z,16.70
2019-02-09T13:01:23.744Z,16.50
2019-02-09T13:03:51.853Z,16.50
2019-02-09T13:06:20.083Z,16.50
2019-02-09T13:08:48.030Z,16.20
2019-02-09T13:11:16.144Z,16.20
2019-02-09T13:13:44.359Z,16.20
2019-02-09T13:16:12.685Z,16.40
2019-02-09T13:18:41.110Z,16.60
2019-02-09T13:21:09.365Z,16.70
2019-02-09T13:23:37.414Z,16.70
2019-02-09T13:26:05.508Z,16.70
2019-02-09T13:28:33.779Z,16.60
2019-02-09T13:31:01.919Z,16.50
2019-02-09T13:33:30.462Z,16.50
2019-02-09T13:35:58.742Z,16.40
2019-02-09T13:38:26.783Z,16.30
2019-02-09T13:40:55.090Z,16.30
2019-02-09T13:43:22.993Z,16.40
2019-02-09T13:45:51.969Z,16.30
2019-02-09T13:48:20.369Z,16.40
2019-02-09T13:50:48.346Z,16.30
2019-02-09T13:53:16.358Z,16.20
2019-02-09T13:55:44.449Z,16.30
2019-02-09T13:58:12.494Z,16.30
2019-02-09T14:00:40.742Z,16.40
2019-02-09T14:03:09.264Z,16.50
2019-02-09T14:05:38.641Z,16.40
2019-02-09T14:08:07.584Z,16.20
2019-02-09T14:10:36.148Z,16.00
2019-02-09T14:13:04.517Z,15.70
2019-02-09T14:15:32.970Z,15.70
2019-02-09T14:18:03.817Z,15.70
2019-02-09T14:20:32.158Z,15.70
2019-02-09T14:23:00.642Z,15.70
2019-02-09T14:25:28.609Z,15.60
2019-02-09T14:27:59.166Z,15.50
2019-02-09T14:30:28.352Z,15.60
2019-02-09T14:32:56.662Z,15.50
2019-02-09T14:35:24.863Z,15.40
2019-02-09T14:37:53.271Z,15.40
2019-02-09T14:40:26.729Z,15.40
2019-02-09T14:42:55.224Z,15.40
2019-02-09T14:45:25.516Z,15.20
2019-02-09T14:47:53.410Z,15.20
2019-02-09T14:50:21.654Z,15.10
2019-02-09T14:52:50.099Z,15.00
2019-02-09T14:55:25.102Z,14.80
2019-02-09T14:57:54.316Z,14.70
2019-02-09T15:00:25.466Z,14.70
2019-02-09T15:02:54.171Z,14.70
2019-02-09T15:05:22.469Z,14.60
2019-02-09T15:07:50.928Z,14.40
2019-02-09T15:10:19.993Z,14.40
2019-02-09T15:12:49.082Z,14.40
2019-02-09T15:15:29.162Z,14.40
2019-02-09T15:17:59.044Z,14.40
2019-02-09T15:20:32.605Z,14.40
2019-02-09T15:23:01.630Z,14.40
2019-02-09T15:25:29.962Z,14.40
2019-02-09T15:27:58.039Z,14.30
2019-02-09T15:30:27.005Z,14.30
2019-02-09T15:32:55.207Z,14.20
2019-02-09T15:35:23.438Z,14.20
2019-02-09T15:37:51.675Z,14.20
2019-02-09T15:40:20.078Z,14.20
2019-02-09T15:42:48.138Z,14.20
2019-02-09T15:45:17.434Z,14.20
2019-02-09T15:48:00.259Z,14.20
2019-02-09T15:50:28.196Z,14.10
2019-02-09T15:52:56.483Z,14.10
2019-02-09T15:55:24.493Z,14.10
2019-02-09T15:57:52.693Z,14.00
2019-02-09T16:00:24.814Z,13.90
2019-02-09T16:02:53.762Z,13.80
2019-02-09T16:05:22.448Z,13.70
2019-02-09T16:07:51.813Z,13.70
2019-02-09T16:10:20.399Z,13.60
2019-02-09T16:12:48.818Z,13.50
2019-02-09T16:15:18.705Z,13.40
2019-02-09T16:17:46.858Z,13.40
2019-02-09T16:20:17.275Z,13.20
2019-02-09T16:22:45.505Z,13.20
2019-02-09T16:25:13.911Z,13.10
2019-02-09T16:27:42.095Z,13.00
2019-02-09T16:30:18.624Z,12.90
2019-02-09T16:32:45.298Z,12.90
2019-02-09T16:35:15.032Z,12.70
2019-02-09T16:37:43.721Z,12.70
2019-02-09T16:40:14.713Z,12.60
2019-02-09T16:42:43.061Z,12.50
2019-02-09T16:45:15.555Z,12.40
2019-02-09T16:47:44.242Z,12.40
2019-02-09T16:50:12.663Z,12.40
2019-02-09T16:52:40.746Z,12.40
2019-02-09T16:55:09.606Z,12.40
2019-02-09T16:57:38.175Z,12.40
2019-02-09T17:00:07.308Z,12.30
2019-02-09T17:02:35.669Z,12.30
2019-02-09T17:05:05.943Z,12.20
2019-02-09T17:07:34.352Z,12.10
2019-02-09T17:10:04.274Z,12.00
2019-02-09T17:12:32.930Z,11.90
2019-02-09T17:15:01.025Z,11.90
2019-02-09T17:17:29.402Z,11.90
2019-02-09T17:19:57.595Z,11.90
2019-02-09T17:22:25.875Z,11.90
2019-02-09T17:24:54.517Z,11.90
2019-02-09T17:27:22.822Z,11.90
2019-02-09T17:29:51.618Z,11.80
2019-02-09T17:32:20.025Z,11.70
2019-02-09T17:34:48.264Z,11.70
2019-02-09T17:37:17.390Z,11.70
2019-02-09T17:39:45.926Z,11.80
2019-02-09T17:42:14.554Z,11.70
2019-02-09T17:44:42.839Z,11.70
2019-02-09T17:47:11.186Z,11.70
2019-02-09T17:49:39.839Z,11.70
2019-02-09T17:52:07.946Z,11.70
2019-02-09T17:54:37.518Z,11.60
2019-02-09T17:57:05.911Z,11.60
2019-02-09T17:59:34.091Z,11.70
2019-02-09T18:02:02.953Z,11.70
2019-02-09T18:04:30.860Z,11.70
2019-02-09T18:06:59.144Z,11.70
2019-02-09T18:09:27.790Z,11.60
2019-02-09T18:11:56.266Z,11.60
2019-02-09T18:14:24.301Z,11.60
2019-02-09T18:16:52.910Z,11.60
2019-02-09T18:19:21.629Z,11.60
2019-02-09T18:21:49.719Z,11.60
2019-02-09T18:24:18.198Z,11.60
2019-02-09T18:26:46.173Z,11.60
2019-02-09T18:29:14.222Z,11.50
2019-02-09T18:31:42.645Z,11.40
2019-02-09T18:34:10.975Z,11.40
2019-02-09T18:36:39.683Z,11.40
2019-02-09T18:39:10.830Z,11.50
2019-02-09T18:41:39.011Z,11.40
2019-02-09T18:44:07.271Z,11.40
2019-02-09T18:46:35.433Z,11.30
2019-02-09T18:49:04.030Z,11.30
2019-02-09T18:51:32.130Z,11.30
2019-02-09T18:54:01.054Z,11.40
2019-02-09T18:56:29.170Z,11.30
2019-02-09T18:58:57.315Z,11.30
2019-02-09T19:01:25.386Z,11.20
2019-02-09T19:03:53.729Z,11.20
2019-02-09T19:06:22.354Z,11.10
2019-02-09T19:08:50.708Z,11.10
2019-02-09T19:11:19.105Z,11.10
2019-02-09T19:13:47.237Z,11.10
2019-02-09T19:16:15.466Z,11.00
2019-02-09T19:18:43.693Z,11.00
2019-02-09T19:21:16.978Z,10.90
2019-02-09T19:23:45.138Z,10.80
2019-02-09T19:26:13.129Z,10.80
2019-02-09T19:28:41.148Z,10.70
2019-02-09T19:31:16.365Z,10.70
2019-02-09T19:33:44.410Z,10.70
2019-02-09T19:36:12.559Z,10.70
2019-02-09T19:38:40.610Z,10.60
2019-02-09T19:41:08.982Z,10.60
2019-02-09T19:43:37.274Z,10.60
2019-02-09T19:46:05.886Z,10.50
2019-02-09T19:48:33.755Z,10.50
2019-02-09T19:51:02.057Z,10.50
2019-02-09T19:53:30.134Z,10.40
2019-02-09T19:55:58.371Z,10.40
2019-02-09T19:58:26.401Z,10.40
2019-02-09T20:00:54.409Z,10.40
2019-02-09T20:03:22.739Z,10.30
2019-02-09T20:05:51.022Z,10.30
2019-02-09T20:08:19.272Z,10.20
2019-02-09T20:10:47.304Z,10.20
2019-02-09T20:13:15.590Z,10.20
2019-02-09T20:15:43.824Z,10.20
2019-02-09T20:18:12.417Z,10.10
2019-02-09T20:20:46.922Z,10.10
2019-02-09T20:23:11.610Z,10.10
2019-02-09T20:25:39.880Z,10.10
2019-02-09T20:28:08.347Z,10.10
2019-02-09T20:30:36.728Z,10.00
2019-02-09T20:33:05.494Z,10.00
2019-02-09T20:35:33.817Z,10.00
2019-02-09T20:38:02.076Z,10.00
2019-02-09T20:40:32.333Z,9.90
2019-02-09T20:43:02.849Z,9.90
2019-02-09T20:45:31.324Z,9.90
2019-02-09T20:47:59.993Z,9.90
2019-02-09T20:50:28.138Z,9.80
2019-02-09T20:52:56.257Z,9.80
2019-02-09T20:55:24.320Z,9.80
2019-02-09T20:57:52.506Z,9.80
2019-02-09T21:00:21.511Z,9.80
2019-02-09T21:02:50.274Z,9.90
2019-02-09T21:05:18.687Z,9.80
2019-02-09T21:07:47.356Z,9.80
2019-02-09T21:10:17.800Z,9.80
2019-02-09T21:12:46.118Z,9.80
2019-02-09T21:15:14.635Z,9.80
2019-02-09T21:17:42.711Z,9.80
2019-02-09T21:20:11.349Z,9.80
2019-02-09T21:22:39.978Z,9.90
2019-02-09T21:25:11.759Z,9.80
2019-02-09T21:27:39.950Z,9.80
2019-02-09T21:30:09.125Z,9.80
2019-02-09T21:32:40.256Z,9.80
2019-02-09T21:35:08.435Z,9.80
2019-02-09T21:37:36.806Z,9.80
2019-02-09T21:40:10.174Z,9.90
2019-02-09T21:42:38.183Z,9.90
2019-02-09T21:45:08.035Z,9.90
2019-02-09T21:47:36.726Z,10.00
2019-02-09T21:50:06.429Z,10.00
2019-02-09T21:52:35.047Z,10.00
2019-02-09T21:55:03.742Z,10.10
2019-02-09T21:57:31.832Z,10.00
2019-02-09T22:00:00.230Z,10.00
2019-02-09T22:02:29.162Z,10.00
2019-02-09T22:04:57.865Z,10.00
2019-02-09T22:07:26.521Z,10.00
2019-02-09T22:09:54.950Z,10.00
2019-02-09T22:12:23.605Z,10.00
2019-02-09T22:14:52.105Z,10.00
2019-02-09T22:17:20.180Z,10.00
2019-02-09T22:19:48.931Z,10.00
2019-02-09T22:22:17.074Z,10.00
2019-02-09T22:24:45.710Z,10.00
2019-02-09T22:27:14.078Z,9.90
2019-02-09T22:29:42.797Z,9.90
2019-02-09T22:32:10.875Z,10.00
2019-02-09T22:34:39.049Z,10.10
2019-02-09T22:37:07.622Z,10.20
2019-02-09T22:39:36.275Z,10.20
2019-02-09T22:42:04.982Z,10.20
2019-02-09T22:44:33.110Z,10.30
2019-02-09T22:47:01.741Z,10.30
2019-02-09T22:49:29.816Z,10.30
2019-02-09T22:51:58.470Z,10.30
2019-02-09T22:54:27.182Z,10.30
2019-02-09T22:56:55.281Z,10.30
2019-02-09T22:59:23.436Z,10.30
2019-02-09T23:01:52.302Z,10.30
2019-02-09T23:05:12.625Z,10.30
2019-02-09T23:07:41.717Z,10.30
2019-02-09T23:10:14.054Z,10.30
2019-02-09T23:12:48.324Z,10.30
2019-02-09T23:15:13.703Z,10.30
2019-02-09T23:17:42.162Z,10.30
2019-02-09T23:20:10.293Z,10.30
2019-02-09T23:22:38.345Z,10.30
2019-02-09T23:25:07.633Z,10.30
2019-02-09T23:27:36.297Z,10.30
2019-02-09T23:30:07.238Z,10.30
2019-02-09T23:32:35.274Z,10.30
2019-02-09T23:35:04.203Z,10.30
2019-02-09T23:37:32.420Z,10.40
2019-02-09T23:40:00.655Z,10.40
2019-02-09T23:42:29.047Z,10.30
2019-02-09T23:44:57.182Z,10.30
2019-02-09T23:47:25.492Z,10.30
2019-02-09T23:49:54.583Z,10.30
2019-02-09T23:52:22.570Z,10.40
2019-02-09T23:54:50.744Z,10.40
2019-02-09T23:57:19.041Z,10.40
2019-02-09T23:59:47.110Z,10.40
